createdAt,value
2018-06-03T13:08:17.704Z,23.90
2018-06-03T13:10:20.900Z,21.70
2018-06-03T13:12:24.766Z,26.47
2018-06-03T13:14:27.228Z,21.90
2018-06-03T13:16:29.705Z,21.77
2018-06-03T13:18:32.160Z,22.53
2018-06-03T13:20:34.712Z,23.53
2018-06-03T13:22:37.177Z,22.37
2018-06-03T13:24:39.616Z,17.80
2018-06-03T13:26:42.079Z,19.03
2018-06-03T13:28:44.508Z,19.43
2018-06-03T13:30:47.069Z,18.80
2018-06-03T13:32:49.535Z,24.43
2018-06-03T13:34:52.021Z,22.77
2018-06-03T13:36:54.467Z,19.73
2018-06-03T13:38:56.985Z,14.73
2018-06-03T13:40:59.440Z,20.43
2018-06-03T13:43:01.905Z,14.23
2018-06-03T13:45:06.280Z,17.30
2018-06-03T13:47:09.587Z,17.70
2018-06-03T13:49:12.092Z,18.33
2018-06-03T13:51:14.637Z,21.97
2018-06-03T13:53:17.200Z,19.03
2018-06-03T13:55:19.673Z,15.43
2018-06-03T13:57:22.140Z,16.47
2018-06-03T13:59:25.365Z,16.70
2018-06-03T14:01:27.818Z,17.73
2018-06-03T14:03:30.263Z,23.13
2018-06-03T14:05:32.742Z,15.87
2018-06-03T14:07:35.184Z,17.17
2018-06-03T14:09:38.466Z,18.90
2018-06-03T14:11:41.987Z,17.70
2018-06-03T14:13:45.212Z,19.20
2018-06-03T14:15:47.656Z,19.53
2018-06-03T14:17:50.108Z,16.27
2018-06-03T14:19:52.548Z,17.17
2018-06-03T14:21:56.524Z,14.50
2018-06-03T14:23:58.964Z,14.00
2018-06-03T14:26:01.417Z,14.63
2018-06-03T14:28:04.619Z,14.10
2018-06-03T14:30:07.112Z,14.70
2018-06-03T14:32:09.549Z,8.27
2018-06-03T14:34:11.983Z,10.77
2018-06-03T14:36:15.338Z,10.47
2018-06-03T14:38:17.820Z,8.50
2018-06-03T14:40:20.265Z,8.93
2018-06-03T14:42:22.751Z,9.10
2018-06-03T14:44:25.160Z,9.73
2018-06-03T14:46:29.128Z,11.90
2018-06-03T14:48:31.576Z,13.07
2018-06-03T14:50:34.068Z,10.13
2018-06-03T14:52:36.448Z,12.70
2018-06-03T14:54:38.903Z,14.37
2018-06-03T14:56:41.372Z,13.33
2018-06-03T14:58:43.778Z,16.53
2018-06-03T15:00:46.204Z,20.57
2018-06-03T15:02:50.193Z,17.10
2018-06-03T15:04:52.618Z,32.43
2018-06-03T15:06:55.076Z,21.90
2018-06-03T15:08:57.517Z,17.87
2018-06-03T15:11:00.729Z,22.20
2018-06-03T15:13:03.950Z,18.53
2018-06-03T15:15:06.386Z,18.20
2018-06-03T15:17:09.588Z,24.67
2018-06-03T15:19:12.068Z,17.83
2018-06-03T15:21:15.264Z,23.13
2018-06-03T15:23:17.708Z,20.60
2018-06-03T15:25:20.930Z,17.23
2018-06-03T15:27:23.428Z,15.77
2018-06-03T15:29:25.908Z,21.47
2018-06-03T15:31:28.497Z,21.10
2018-06-03T15:33:30.945Z,17.43
2018-06-03T15:35:33.448Z,20.33
2018-06-03T15:37:35.919Z,15.33
2018-06-03T15:39:38.353Z,15.80
2018-06-03T15:41:40.789Z,15.37
2018-06-03T15:43:44.768Z,18.33
2018-06-03T15:45:47.214Z,15.73
2018-06-03T15:47:49.698Z,16.53
2018-06-03T15:49:52.151Z,13.00
2018-06-03T15:51:54.943Z,12.13
2018-06-03T15:53:57.368Z,10.47
2018-06-03T15:56:00.703Z,14.40
2018-06-03T15:58:03.175Z,14.17
2018-06-03T16:00:05.635Z,15.90
2018-06-03T16:02:08.044Z,12.77
2018-06-03T16:04:10.704Z,16.83
2018-06-03T16:06:13.076Z,14.13
2018-06-03T16:08:15.523Z,16.30
2018-06-03T16:10:17.967Z,14.83
2018-06-03T16:12:21.198Z,12.43
2018-06-03T16:14:23.653Z,13.57
2018-06-03T16:16:26.087Z,15.67
2018-06-03T16:18:29.292Z,13.27
2018-06-03T16:20:31.739Z,13.40
2018-06-03T16:22:34.988Z,16.53
2018-06-03T16:24:37.444Z,17.63
2018-06-03T16:26:39.941Z,25.63
2018-06-03T16:28:42.408Z,15.13
2018-06-03T16:30:44.879Z,11.13
2018-06-03T16:32:47.284Z,13.40
2018-06-03T16:34:49.815Z,18.23
2018-06-03T16:36:52.288Z,12.27
2018-06-03T16:38:54.833Z,13.30
2018-06-03T16:40:57.268Z,10.33
2018-06-03T16:42:59.760Z,12.93
2018-06-03T16:45:02.180Z,13.93
2018-06-03T16:47:05.388Z,13.97
2018-06-03T16:49:07.900Z,10.03
2018-06-03T16:51:10.369Z,11.90
2018-06-03T16:53:12.831Z,9.63
2018-06-03T16:55:15.265Z,11.37
2018-06-03T16:57:18.466Z,18.00
2018-06-03T16:59:20.912Z,14.60
2018-06-03T17:01:24.779Z,14.43
2018-06-03T17:03:28.056Z,13.60
2018-06-03T17:05:30.508Z,14.57
2018-06-03T17:07:33.879Z,14.33
2018-06-03T17:09:37.092Z,12.87
2018-06-03T17:11:39.531Z,14.07
2018-06-03T17:13:42.752Z,11.57
2018-06-03T17:15:45.222Z,13.97
2018-06-03T17:17:47.689Z,14.43
2018-06-03T17:19:50.160Z,14.70
2018-06-03T17:21:52.603Z,11.23
2018-06-03T17:23:55.814Z,12.70
2018-06-03T17:25:58.266Z,12.40
2018-06-03T17:28:01.457Z,9.23
2018-06-03T17:30:04.077Z,12.03
2018-06-03T17:32:06.532Z,11.73
2018-06-03T17:34:09.004Z,13.20
2018-06-03T17:36:11.428Z,11.90
2018-06-03T17:38:17.403Z,13.57
2018-06-03T17:40:19.959Z,11.93
2018-06-03T17:42:23.236Z,12.43
2018-06-03T17:44:26.476Z,10.40
2018-06-03T17:46:28.932Z,9.30
2018-06-03T17:48:31.497Z,8.07
2018-06-03T17:50:34.156Z,10.43
2018-06-03T17:52:36.686Z,13.73
2018-06-03T17:54:39.942Z,7.90
2018-06-03T18:02:03.539Z,9.83
2018-06-03T18:09:32.859Z,8.87
2018-06-03T18:21:08.066Z,12.23
2018-06-03T18:25:05.590Z,10.20
2018-06-03T18:27:08.725Z,7.30
2018-06-03T18:29:11.882Z,8.47
2018-06-03T18:31:15.138Z,9.73
2018-06-03T18:33:18.282Z,7.53
2018-06-03T18:35:21.461Z,8.60
2018-06-03T18:37:24.633Z,9.70
2018-06-03T18:39:27.831Z,7.77
2018-06-03T18:41:30.993Z,13.23
2018-06-03T18:43:34.170Z,9.87
2018-06-03T18:45:37.320Z,10.43
2018-06-03T18:47:40.460Z,9.10
2018-06-03T18:49:43.619Z,10.20
2018-06-03T18:51:46.749Z,11.33
2018-06-03T18:53:49.913Z,21.00
2018-06-03T18:55:53.168Z,23.43
2018-06-03T18:57:56.300Z,12.10
2018-06-03T18:59:59.457Z,12.87
2018-06-03T19:02:03.478Z,12.80
2018-06-03T19:04:06.712Z,15.93
2018-06-03T19:06:09.988Z,11.67
2018-06-03T19:08:13.135Z,15.60
2018-06-03T19:10:16.514Z,24.60
2018-06-03T19:12:19.680Z,12.30
2018-06-03T19:14:22.852Z,16.83
2018-06-03T19:16:26.021Z,12.30
2018-06-03T19:18:29.220Z,18.37
2018-06-03T19:20:32.381Z,15.60
2018-06-03T19:22:35.667Z,14.43
2018-06-03T19:24:38.883Z,15.93
2018-06-03T19:26:42.055Z,16.50
2018-06-03T19:28:45.242Z,17.33
2018-06-03T19:30:48.449Z,14.97
2018-06-03T19:32:51.631Z,14.93
2018-06-03T19:34:54.998Z,22.73
2018-06-03T19:36:58.259Z,20.00
2018-06-03T19:39:02.516Z,16.70
2018-06-03T19:41:05.478Z,13.77
2018-06-03T19:43:08.599Z,14.60
2018-06-03T19:45:11.756Z,16.17
2018-06-03T19:47:14.985Z,14.23
2018-06-03T19:49:18.225Z,21.33
2018-06-03T19:51:21.564Z,21.23
2018-06-03T19:53:24.751Z,26.47
2018-06-03T19:55:27.936Z,16.03
2018-06-03T19:57:31.077Z,31.40
2018-06-03T19:59:34.283Z,22.57
2018-06-03T20:01:37.482Z,17.50
2018-06-03T20:03:41.709Z,17.27
2018-06-03T20:05:44.860Z,18.63
2018-06-03T20:07:48.007Z,21.47
2018-06-03T20:09:51.178Z,16.13
2018-06-03T20:11:54.164Z,26.10
2018-06-03T20:13:57.332Z,20.33
2018-06-03T20:16:00.576Z,22.30
2018-06-03T20:18:03.837Z,20.17
2018-06-03T20:20:07.028Z,20.10
2018-06-03T20:22:10.289Z,18.80
2018-06-03T20:24:13.504Z,18.27
2018-06-03T20:26:16.669Z,36.07
2018-06-03T20:28:19.825Z,29.20
2018-06-03T20:30:23.034Z,26.90
2018-06-03T20:32:26.192Z,22.50
2018-06-03T20:34:29.389Z,21.10
2018-06-03T20:36:32.605Z,27.93
2018-06-03T20:38:35.816Z,20.30
2018-06-03T20:40:39.033Z,24.93
2018-06-03T20:42:42.330Z,25.03
2018-06-03T20:44:45.600Z,28.50
2018-06-03T20:46:48.731Z,31.30
2018-06-03T20:48:51.972Z,25.03
2018-06-03T20:50:55.256Z,25.60
2018-06-03T20:52:58.455Z,27.40
2018-06-03T20:55:01.633Z,26.47
2018-06-03T20:57:04.882Z,32.37
2018-06-03T20:59:08.072Z,33.87
2018-06-03T21:01:11.288Z,25.90
2018-06-03T21:03:14.460Z,30.37
2018-06-03T21:05:17.640Z,30.90
2018-06-03T21:07:20.866Z,26.83
2018-06-03T21:09:24.121Z,31.73
2018-06-03T21:11:27.329Z,32.97
2018-06-03T21:13:30.572Z,32.73
2018-06-03T21:15:33.771Z,29.37
2018-06-03T21:17:37.018Z,29.33
2018-06-03T21:19:40.264Z,31.43
2018-06-03T21:21:43.507Z,33.30
2018-06-03T21:23:46.712Z,30.93
2018-06-03T21:25:49.892Z,39.83
2018-06-03T21:27:53.076Z,36.13
2018-06-03T21:29:56.289Z,33.10
2018-06-03T21:31:59.467Z,32.90
2018-06-03T21:34:02.654Z,37.60
2018-06-03T21:36:06.127Z,35.17
2018-06-03T21:38:09.399Z,50.23
2018-06-03T21:40:12.756Z,34.47
2018-06-03T21:42:16.039Z,38.70
2018-06-03T21:44:19.296Z,44.43
2018-06-03T21:46:22.542Z,43.60
2018-06-03T21:48:25.757Z,38.00
2018-06-03T21:50:29.145Z,38.87
2018-06-03T21:52:32.348Z,37.97
2018-06-03T21:54:35.535Z,40.47
2018-06-03T21:56:38.930Z,44.83
2018-06-03T21:58:42.150Z,35.03
2018-06-03T22:00:45.441Z,42.27
2018-06-03T22:02:48.595Z,40.77
2018-06-03T22:04:51.794Z,38.97
2018-06-03T22:06:54.969Z,40.43
2018-06-03T22:08:58.217Z,39.03
2018-06-03T22:11:01.723Z,41.70
2018-06-03T22:13:05.449Z,42.70
2018-06-03T22:15:08.633Z,38.40
2018-06-03T22:17:11.831Z,47.40
2018-06-03T22:19:15.083Z,43.93
2018-06-03T22:21:18.303Z,39.30
2018-06-03T22:23:21.477Z,43.60
2018-06-03T22:25:24.703Z,50.07
2018-06-03T22:27:27.926Z,50.23
2018-06-03T22:29:31.068Z,39.60
2018-06-03T22:31:34.266Z,50.80
2018-06-03T22:33:37.428Z,43.87
2018-06-03T22:35:40.591Z,44.10
2018-06-03T22:37:43.863Z,47.37
2018-06-03T22:39:47.080Z,44.77
2018-06-03T22:41:50.477Z,41.23
2018-06-03T22:43:53.687Z,36.97
2018-06-03T22:45:56.848Z,42.97
2018-06-03T22:48:00.068Z,43.73
2018-06-03T22:50:03.359Z,44.40
2018-06-03T22:52:06.600Z,50.43
2018-06-03T22:54:09.804Z,43.67
2018-06-03T22:56:13.067Z,47.53
2018-06-03T22:58:16.304Z,44.43
2018-06-03T23:00:31.040Z,46.63
2018-06-03T23:02:34.204Z,44.20
2018-06-03T23:04:37.395Z,44.57
2018-06-03T23:06:40.608Z,40.80
2018-06-03T23:08:43.801Z,45.93
2018-06-03T23:10:46.964Z,44.67
2018-06-03T23:12:50.261Z,38.67
2018-06-03T23:14:53.428Z,47.93
2018-06-03T23:16:56.723Z,42.63
2018-06-03T23:18:59.873Z,46.30
2018-06-03T23:21:03.032Z,53.17
2018-06-03T23:23:06.217Z,42.23
2018-06-03T23:25:09.436Z,45.53
2018-06-03T23:27:12.611Z,43.77
2018-06-03T23:29:15.852Z,46.97
2018-06-03T23:31:19.027Z,46.73
2018-06-03T23:33:22.194Z,49.53
2018-06-03T23:35:25.484Z,51.43
2018-06-03T23:37:28.747Z,51.83
2018-06-03T23:39:31.940Z,61.50
2018-06-03T23:41:35.124Z,61.97
2018-06-03T23:43:38.311Z,60.13
2018-06-03T23:45:41.513Z,71.23
2018-06-03T23:47:45.666Z,71.17
2018-06-03T23:49:48.883Z,68.23
2018-06-03T23:51:52.113Z,75.63
2018-06-03T23:53:55.288Z,76.63
2018-06-03T23:55:58.488Z,78.67
2018-06-03T23:58:01.761Z,95.13
